Flight Track Log - Related Links

Times and Time Zones

All times are in EDT time to prevent confusion due to time zone crossing. See the UAE787 flight status page for this flight to view local times or setup timezone preferences in your user account.

Time Position Orientation Groundspeed Altitude Reporting Facility
EDT Latitude Longitude Course Direction KTS MPH feet Rate Location/Type
Thu 11:53:17 PM 25.2680 55.3450 302° West 193 222 700  Level FlightAware ADS-B
Thu 11:53:52 PM 25.2850 55.3130 300° West 202 232 2,000 2,000 Climbing FlightAware ADS-B
Thu 11:54:02 PM 25.2900 55.3040 302° West 214 246 2,200 1,200 Climbing FlightAware ADS-B
Thu 11:54:27 PM 25.2990 55.2790 292° West 241 277 2,700 1,600 Climbing FlightAware ADS-B
Thu 11:54:47 PM 25.2960 55.2500 263° West 256 295 3,400 2,184 Climbing FlightAware ADS-B
Thu 11:57:00 PM 25.2504 54.9813 259° West  Level Estimated
Thu 11:58:00 PM 25.2296 54.8601 259° West  Level Estimated
Thu 11:59:00 PM 25.2087 54.7389 259° West  Level Estimated
Thu 11:59:32 PM 25.2880 54.7460 259° West 379 436 13,800  Level FlightAware ADS-B
Fri 12:00:12 AM 25.3020 54.6770 283° West 386 444 14,900 825 Climbing FlightAware ADS-B
Fri 12:00:52 AM 25.3120 54.6100 279° West 386 444 14,900  Level FlightAware ADS-B
Fri 12:01:32 AM 25.3230 54.5440 280° West 386 444 14,900 1,918 Level FlightAware ADS-B
Fri 12:04:00 AM 25.2703 54.2453 259° West  Level Estimated
Fri 12:05:00 AM 25.2487 54.1242 259° West  Level Estimated
Fri 12:06:00 AM 25.2271 54.0033 259° West  Level Estimated
Fri 12:07:00 AM 25.2054 53.8823 259° West  Level Estimated
Fri 12:08:00 AM 25.1835 53.7614 259° West  Level Estimated
Fri 12:09:00 AM 25.1616 53.6406 259° West  Level Estimated
Fri 12:09:47 AM 25.5960 53.4760 259° West 422 486 32,000  Level FlightAware ADS-B
Fri 12:10:27 AM 25.6110 53.4060 283° West 422 486 32,000  Level FlightAware ADS-B
Fri 12:11:07 AM 25.6260 53.3340 283° West 422 486 32,000  Level FlightAware ADS-B
Fri 12:11:47 AM 25.6410 53.2630 283° West 422 486 32,000  Level FlightAware ADS-B
Fri 12:12:02 AM 25.6800 53.1980 304° West 447 514 32,000  Level FlightAware ADS-B
Fri 12:12:47 AM 25.7380 53.1120 307° West 447 514 32,000  Level FlightAware ADS-B
Fri 12:13:27 AM 25.7710 53.0330 295° West 421 484 32,000  Level FlightAware ADS-B
Fri 12:14:12 AM 25.7860 52.9360 280° West 419 482 32,000  Level FlightAware ADS-B
Fri 12:14:52 AM 25.7970 52.8530 278° West 419 482 32,000  Level FlightAware ADS-B
Fri 12:15:37 AM 25.8110 52.7550 279° West 420 483 32,000  Level FlightAware ADS-B
Fri 12:16:17 AM 25.8230 52.6700 279° West 420 483 32,000  Level FlightAware ADS-B
Fri 12:17:02 AM 25.8370 52.5740 279° West 421 484 32,000  Level FlightAware ADS-B
Fri 12:17:42 AM 25.8500 52.4880 280° West 423 487 32,000  Level FlightAware ADS-B
Fri 12:18:22 AM 25.8790 52.4060 291° West 438 504 32,000  Level FlightAware ADS-B
Fri 12:19:07 AM 25.9230 52.3160 299° West 444 511 32,000  Level FlightAware ADS-B
Fri 12:19:47 AM 25.9630 52.2360 299° West 444 511 32,000  Level FlightAware ADS-B
Fri 12:20:32 AM 26.0060 52.1460 298° West 444 511 32,000  Level FlightAware ADS-B
Fri 12:21:12 AM 26.0450 52.0660 298° West 445 512 32,000  Level FlightAware ADS-B
Fri 12:21:52 AM 26.0840 51.9840 298° West 445 512 32,000  Level FlightAware ADS-B
Fri 12:22:37 AM 26.1250 51.8980 298° West 446 513 32,000  Level FlightAware ADS-B
Fri 12:23:17 AM 26.1650 51.8130 298° West 446 513 32,000  Level FlightAware ADS-B
Fri 12:24:02 AM 26.2060 51.7250 297° West 444 511 32,000  Level FlightAware ADS-B
Fri 12:24:42 AM 26.2440 51.6410 297° West 443 510 32,000  Level FlightAware ADS-B
Fri 12:25:27 AM 26.2860 51.5470 297° West 441 507 32,000  Level FlightAware ADS-B
Fri 12:26:07 AM 26.3230 51.4650 297° West 439 505 32,000  Level FlightAware ADS-B
Fri 12:26:47 AM 26.3590 51.3850 297° West 441 507 32,000  Level FlightAware ADS-B
Fri 12:27:32 AM 26.3970 51.2910 294° West 438 504 32,000  Level FlightAware ADS-B
Fri 12:28:12 AM 26.4290 51.2120 294° West 438 504 32,000  Level FlightAware ADS-B
Fri 12:28:52 AM 26.4630 51.1260 294° West 438 504 32,000  Level FlightAware ADS-B
Fri 12:29:37 AM 26.5000 51.0350 294° West 439 505 32,000  Level FlightAware ADS-B
Fri 12:30:17 AM 26.5330 50.9530 294° West 435 501 32,000  Level FlightAware ADS-B
Fri 12:31:02 AM 26.5680 50.8570 292° West 429 494 32,000  Level FlightAware ADS-B
Fri 12:31:42 AM 26.5960 50.7750 291° West 427 491 32,000  Level FlightAware ADS-B
Fri 12:32:22 AM 26.6240 50.6930 291° West 426 490 32,000  Level FlightAware ADS-B
Fri 12:33:07 AM 26.6550 50.6010 291° West 424 488 32,000  Level FlightAware ADS-B
Fri 12:33:47 AM 26.6780 50.5270 289° West 424 488 32,000  Level FlightAware ADS-B
Fri 12:34:27 AM 26.7000 50.4570 289° West 424 488 32,000  Level FlightAware ADS-B
Fri 12:35:12 AM 26.7410 50.3460 292° West 425 489 32,000  Level FlightAware ADS-B
Fri 12:35:57 AM 26.7570 50.2560 281° West 412 474 32,000  Level FlightAware ADS-B
Fri 12:36:52 AM 26.7540 50.1400 268° West 398 458 32,000  Level FlightAware ADS-B
Fri 12:37:32 AM 26.7520 50.0640 268° West 398 458 32,000  Level FlightAware ADS-B
Fri 12:38:07 AM 26.7490 49.9790 268° West 398 458 32,000  Level FlightAware ADS-B
Fri 12:38:57 AM 26.7460 49.8760 268° West 397 457 32,000  Level FlightAware ADS-B
Fri 12:39:52 AM 26.7440 49.7760 269° West 397 457 32,000  Level FlightAware ADS-B
Fri 12:40:37 AM 26.7410 49.6860 268° West 397 457 32,000  Level FlightAware ADS-B
Fri 12:41:17 AM 26.7400 49.6160 269° West 397 457 32,000  Level FlightAware ADS-B
Fri 12:41:57 AM 26.7390 49.5460 269° West 397 457 32,000  Level FlightAware ADS-B
Fri 12:42:07 AM 26.7030 49.5020 228° Southwest 32,000  Level FlightAware ADS-B
Fri 12:42:22 AM 26.6970 49.4760 256° West 387 445 32,000  Level FlightAware ADS-B
Fri 12:43:07 AM 26.6800 49.3940 257° West 387 445 32,000  Level FlightAware ADS-B
Fri 12:43:52 AM 26.6570 49.3000 255° West 388 447 32,000  Level FlightAware ADS-B
Fri 12:44:32 AM 26.6410 49.2340 255° West 388 447 32,000  Level FlightAware ADS-B
Fri 12:45:12 AM 26.6250 49.1680 255° West 388 447 32,000  Level FlightAware ADS-B
Fri 12:45:52 AM 26.6100 49.1020 256° West 388 447 32,000  Level FlightAware ADS-B
Fri 12:46:32 AM 26.5940 49.0370 255° West 388 447 32,000  Level FlightAware ADS-B
Fri 12:47:22 AM 26.5740 48.9540 255° West 388 447 32,000  Level FlightAware ADS-B
Fri 12:48:02 AM 26.5580 48.8880 255° West 388 447 32,000  Level FlightAware ADS-B
Fri 12:48:42 AM 26.5420 48.8220 255° West 388 447 32,000  Level FlightAware ADS-B
Fri 12:49:22 AM 26.5270 48.7560 256° West 388 447 32,000  Level FlightAware ADS-B
Fri 12:50:02 AM 26.5110 48.6910 255° West 388 447 32,000  Level FlightAware ADS-B
Fri 12:50:52 AM 26.4910 48.6080 255° West 388 447 32,000  Level FlightAware ADS-B
Fri 12:51:32 AM 26.4750 48.5420 255° West 388 447 32,000  Level FlightAware ADS-B
Fri 12:52:12 AM 26.4590 48.4760 255° West 388 447 32,000  Level FlightAware ADS-B
Fri 12:52:52 AM 26.4440 48.4110 256° West 388 447 32,000  Level FlightAware ADS-B
Fri 12:55:00 AM 26.3805 48.1549 255° West  Level Estimated
Fri 12:56:00 AM 26.3506 48.0350 254° West  Level Estimated
Fri 12:57:00 AM 26.3206 47.9151 254° West  Level Estimated
Fri 12:58:00 AM 26.2904 47.7953 254° West  Level Estimated
Fri 12:59:00 AM 26.2602 47.6755 254° West  Level Estimated
Fri 01:00:00 AM 26.2299 47.5558 254° West  Level Estimated
Fri 01:01:00 AM 26.1995 47.4362 254° West  Level Estimated
Fri 01:02:00 AM 26.1690 47.3166 254° West  Level Estimated
Fri 01:03:00 AM 26.1384 47.1971 254° West  Level Estimated
Fri 01:04:00 AM 26.1077 47.0776 254° West  Level Estimated
Fri 01:05:00 AM 26.0769 46.9583 254° West  Level Estimated
Fri 01:06:00 AM 26.0460 46.8389 254° West  Level Estimated
Fri 01:07:00 AM 26.0150 46.7197 254° West  Level Estimated
Fri 01:08:00 AM 25.9839 46.6005 254° West  Level Estimated
Fri 01:09:00 AM 25.9527 46.4814 254° West  Level Estimated
Fri 01:10:00 AM 25.9214 46.3623 254° West  Level Estimated
Fri 01:11:00 AM 25.8900 46.2433 254° West  Level Estimated
Fri 01:12:00 AM 25.8585 46.1244 254° West  Level Estimated
Fri 01:13:00 AM 25.8269 46.0055 254° West  Level Estimated
Fri 01:14:00 AM 25.7952 45.8867 254° West  Level Estimated
Fri 01:15:00 AM 25.7634 45.7679 253° West  Level Estimated
Fri 01:16:00 AM 25.7316 45.6492 253° West  Level Estimated
Fri 01:17:00 AM 25.6996 45.5306 253° West  Level Estimated
Fri 01:18:00 AM 25.6675 45.4120 253° West  Level Estimated
Fri 01:19:00 AM 25.6354 45.2935 253° West  Level Estimated
Fri 01:20:00 AM 25.6031 45.1751 253° West  Level Estimated
Fri 01:21:00 AM 25.5707 45.0567 253° West  Level Estimated
Fri 01:22:00 AM 25.5383 44.9384 253° West  Level Estimated
Fri 01:23:00 AM 25.5057 44.8202 253° West  Level Estimated
Fri 01:24:00 AM 25.4731 44.7020 253° West  Level Estimated
Fri 01:25:00 AM 25.4404 44.5839 253° West  Level Estimated
Fri 01:26:00 AM 25.4075 44.4659 253° West  Level Estimated
Fri 01:27:00 AM 25.3746 44.3479 253° West  Level Estimated
Fri 01:28:00 AM 25.3416 44.2300 253° West  Level Estimated
Fri 01:29:00 AM 25.3085 44.1121 253° West  Level Estimated
Fri 01:30:00 AM 25.2753 43.9943 253° West  Level Estimated
Fri 01:31:00 AM 25.2420 43.8766 253° West  Level Estimated
Fri 01:32:00 AM 25.2086 43.7589 253° West  Level Estimated
Fri 01:33:00 AM 25.1751 43.6413 253° West  Level Estimated
Fri 01:34:00 AM 25.1415 43.5238 253° West  Level Estimated
Fri 01:35:00 AM 25.1078 43.4063 252° West  Level Estimated
Fri 01:36:00 AM 25.0741 43.2889 252° West  Level Estimated
Fri 01:37:00 AM 25.0402 43.1716 252° West  Level Estimated
Fri 01:38:00 AM 25.0063 43.0543 252° West  Level Estimated
Fri 01:39:00 AM 24.9722 42.9371 252° West  Level Estimated
Fri 01:40:00 AM 24.9381 42.8200 252° West  Level Estimated
Fri 01:41:00 AM 24.9039 42.7029 252° West  Level Estimated
Fri 01:42:00 AM 24.8696 42.5859 252° West  Level Estimated
Fri 01:43:00 AM 24.8352 42.4689 252° West  Level Estimated
Fri 01:44:00 AM 24.8007 42.3521 252° West  Level Estimated
Fri 01:45:00 AM 24.7661 42.2352 252° West  Level Estimated
Fri 01:46:00 AM 24.7314 42.1185 252° West  Level Estimated
Fri 01:47:00 AM 24.6966 42.0018 252° West  Level Estimated
Fri 01:48:00 AM 24.6618 41.8852 252° West  Level Estimated
Fri 01:49:00 AM 24.6268 41.7686 252° West  Level Estimated
Fri 01:50:00 AM 24.5918 41.6521 252° West  Level Estimated
Fri 01:51:00 AM 24.5567 41.5357 252° West  Level Estimated
Fri 01:52:00 AM 24.5214 41.4193 252° West  Level Estimated
Fri 01:53:00 AM 24.4861 41.3030 252° West  Level Estimated
Fri 01:54:00 AM 24.4507 41.1868 252° West  Level Estimated
Fri 01:55:00 AM 24.4153 41.0706 251° West  Level Estimated
Fri 01:56:00 AM 24.3797 40.9545 251° West  Level Estimated
Fri 01:57:00 AM 24.3440 40.8385 251° West  Level Estimated
Fri 01:58:00 AM 24.3083 40.7225 251° West  Level Estimated
Fri 01:59:00 AM 24.2724 40.6066 251° West  Level Estimated
Fri 02:00:00 AM 24.2365 40.4908 251° West  Level Estimated
Fri 02:01:00 AM 24.2005 40.3750 251° West  Level Estimated
Fri 02:02:00 AM 24.1644 40.2593 251° West  Level Estimated
Fri 02:03:00 AM 24.1282 40.1437 251° West  Level Estimated
Fri 02:04:00 AM 24.0919 40.0281 251° West  Level Estimated
Fri 02:05:00 AM 24.0556 39.9126 251° West  Level Estimated
Fri 02:06:00 AM 24.0191 39.7971 251° West  Level Estimated
Fri 02:07:00 AM 23.9826 39.6818 251° West  Level Estimated
Fri 02:08:00 AM 23.9460 39.5665 251° West  Level Estimated
Fri 02:09:00 AM 23.9093 39.4512 251° West  Level Estimated
Fri 02:10:00 AM 23.8725 39.3360 251° West  Level Estimated
Fri 02:11:00 AM 23.8356 39.2209 251° West  Level Estimated
Fri 02:12:00 AM 23.7987 39.1059 251° West  Level Estimated
Fri 02:13:00 AM 23.7616 38.9909 251° West  Level Estimated
Fri 02:14:00 AM 23.7245 38.8759 251° West  Level Estimated
Fri 02:15:00 AM 23.6873 38.7611 251° West  Level Estimated
Fri 02:16:00 AM 23.6500 38.6463 250° West  Level Estimated
Fri 02:17:00 AM 23.6126 38.5316 250° West  Level Estimated
Fri 02:18:00 AM 23.5751 38.4169 250° West  Level Estimated
Fri 02:19:00 AM 23.5375 38.3023 250° West  Level Estimated
Fri 02:20:00 AM 23.4999 38.1878 250° West  Level Estimated
Fri 02:21:00 AM 23.4622 38.0733 250° West  Level Estimated
Fri 02:22:00 AM 23.4244 37.9590 250° West  Level Estimated
Fri 02:23:00 AM 23.3865 37.8446 250° West  Level Estimated
Fri 02:24:00 AM 23.3485 37.7304 250° West  Level Estimated
Fri 02:25:00 AM 23.3104 37.6161 250° West  Level Estimated
Fri 02:26:00 AM 23.2723 37.5020 250° West  Level Estimated
Fri 02:27:00 AM 23.2341 37.3880 250° West  Level Estimated
Fri 02:28:00 AM 23.1958 37.2739 250° West  Level Estimated
Fri 02:29:00 AM 23.1574 37.1600 250° West  Level Estimated
Fri 02:30:00 AM 23.1189 37.0461 250° West  Level Estimated
Fri 02:31:00 AM 23.0804 36.9323 250° West  Level Estimated
Fri 02:32:00 AM 23.0417 36.8186 250° West  Level Estimated
Fri 02:33:00 AM 23.0030 36.7049 250° West  Level Estimated
Fri 02:34:00 AM 22.9643 36.5913 250° West  Level Estimated
Fri 02:35:00 AM 22.9254 36.4777 250° West  Level Estimated
Fri 02:36:00 AM 22.8864 36.3643 250° West  Level Estimated
Fri 02:37:00 AM 22.8474 36.2509 250° West  Level Estimated
Fri 02:38:00 AM 22.8083 36.1375 249° West  Level Estimated
Fri 02:39:00 AM 22.7691 36.0242 249° West  Level Estimated
Fri 02:40:00 AM 22.7298 35.9110 249° West  Level Estimated
Fri 02:41:00 AM 22.6905 35.7978 249° West  Level Estimated
Fri 02:42:00 AM 22.6511 35.6847 249° West  Level Estimated
Fri 02:43:00 AM 22.6115 35.5717 249° West  Level Estimated
Fri 02:44:00 AM 22.5720 35.4588 249° West  Level Estimated
Fri 02:45:00 AM 22.5323 35.3459 249° West  Level Estimated
Fri 02:46:00 AM 22.4925 35.2330 249° West  Level Estimated
Fri 02:47:00 AM 22.4527 35.1203 249° West  Level Estimated
Fri 02:48:00 AM 22.4128 35.0075 249° West  Level Estimated
Fri 02:49:00 AM 22.3728 34.8949 249° West  Level Estimated
Fri 02:50:00 AM 22.3328 34.7823 249° West  Level Estimated
Fri 02:51:00 AM 22.2926 34.6698 249° West  Level Estimated
Fri 02:52:00 AM 22.2524 34.5574 249° West  Level Estimated
Fri 02:53:00 AM 22.2121 34.4450 249° West  Level Estimated
Fri 02:54:00 AM 22.1717 34.3327 249° West  Level Estimated
Fri 02:55:00 AM 22.1313 34.2205 249° West  Level Estimated
Fri 02:56:00 AM 22.0907 34.1083 249° West  Level Estimated
Fri 02:57:00 AM 22.0501 33.9962 249° West  Level Estimated
Fri 02:58:00 AM 22.0095 33.8841 249° West  Level Estimated
Fri 02:59:00 AM 21.9687 33.7721 249° West  Level Estimated
Fri 03:00:00 AM 21.9279 33.6602 249° West  Level Estimated
Fri 03:01:00 AM 21.8870 33.5483 249° West  Level Estimated
Fri 03:02:00 AM 21.8460 33.4365 248° West  Level Estimated
Fri 03:03:00 AM 21.8049 33.3248 248° West  Level Estimated
Fri 03:04:00 AM 21.7638 33.2131 248° West  Level Estimated
Fri 03:05:00 AM 21.7226 33.1015 248° West  Level Estimated
Fri 03:06:00 AM 21.6813 32.9900 248° West  Level Estimated
Fri 03:07:00 AM 21.6399 32.8785 248° West  Level Estimated
Fri 03:08:00 AM 21.5985 32.7671 248° West  Level Estimated
Fri 03:09:00 AM 21.5570 32.6557 248° West  Level Estimated
Fri 03:10:00 AM 21.5154 32.5444 248° West  Level Estimated
Fri 03:11:00 AM 21.4738 32.4332 248° West  Level Estimated
Fri 03:12:00 AM 21.4321 32.3220 248° West  Level Estimated
Fri 03:13:00 AM 21.3903 32.2109 248° West  Level Estimated
Fri 03:14:00 AM 21.3484 32.0999 248° West  Level Estimated
Fri 03:15:00 AM 21.3064 31.9890 248° West  Level Estimated
Fri 03:16:00 AM 21.2644 31.8780 248° West  Level Estimated
Fri 03:17:00 AM 21.2223 31.7672 248° West  Level Estimated
Fri 03:18:00 AM 21.1802 31.6564 248° West  Level Estimated
Fri 03:19:00 AM 21.1379 31.5457 248° West  Level Estimated
Fri 03:20:00 AM 21.0956 31.4351 248° West  Level Estimated
Fri 03:21:00 AM 21.0532 31.3245 248° West  Level Estimated
Fri 03:22:00 AM 21.0108 31.2139 248° West  Level Estimated
Fri 03:23:00 AM 20.9683 31.1035 248° West  Level Estimated
Fri 03:24:00 AM 20.9257 30.9931 248° West  Level Estimated
Fri 03:25:00 AM 20.8830 30.8827 248° West  Level Estimated
Fri 03:26:00 AM 20.8403 30.7725 247° West  Level Estimated
Fri 03:27:00 AM 20.7975 30.6623 247° West  Level Estimated
Fri 03:28:00 AM 20.7546 30.5521 247° West  Level Estimated
Fri 03:29:00 AM 20.7117 30.4420 247° West  Level Estimated
Fri 03:30:00 AM 20.6686 30.3320 247° West  Level Estimated
Fri 03:31:00 AM 20.6256 30.2220 247° West  Level Estimated
Fri 03:32:00 AM 20.5824 30.1121 247° West  Level Estimated
Fri 03:33:00 AM 20.5392 30.0023 247° West  Level Estimated
Fri 03:34:00 AM 20.4959 29.8925 247° West  Level Estimated
Fri 03:35:00 AM 20.4526 29.7828 247° West  Level Estimated
Fri 03:36:00 AM 20.4091 29.6732 247° West  Level Estimated
Fri 03:37:00 AM 20.3656 29.5636 247° West  Level Estimated
Fri 03:38:00 AM 20.3221 29.4540 247° West  Level Estimated
Fri 03:39:00 AM 20.2784 29.3446 247° West  Level Estimated
Fri 03:40:00 AM 20.2347 29.2352 247° West  Level Estimated
Fri 03:41:00 AM 20.1909 29.1258 247° West  Level Estimated
Fri 03:42:00 AM 20.1471 29.0166 247° West  Level Estimated
Fri 03:43:00 AM 20.1032 28.9073 247° West  Level Estimated
Fri 03:44:00 AM 20.0592 28.7982 247° West  Level Estimated
Fri 03:45:00 AM 20.0152 28.6891 247° West  Level Estimated
Fri 03:46:00 AM 19.9711 28.5800 247° West  Level Estimated
Fri 03:47:00 AM 19.9269 28.4711 247° West  Level Estimated
Fri 03:48:00 AM 19.8827 28.3621 247° West  Level Estimated
Fri 03:49:00 AM 19.8384 28.2533 247° West  Level Estimated
Fri 03:50:00 AM 19.7940 28.1445 247° West  Level Estimated
Fri 03:51:00 AM 19.7495 28.0358 247° West  Level Estimated
Fri 03:52:00 AM 19.7050 27.9271 247° West  Level Estimated
Fri 03:53:00 AM 19.6605 27.8185 246° West  Level Estimated
Fri 03:54:00 AM 19.6158 27.7099 246° West  Level Estimated
Fri 03:55:00 AM 19.5711 27.6014 246° West  Level Estimated
Fri 03:56:00 AM 19.5264 27.4930 246° West  Level Estimated
Fri 03:57:00 AM 19.4816 27.3846 246° West  Level Estimated
Fri 03:58:00 AM 19.4367 27.2763 246° West  Level Estimated
Fri 03:59:00 AM 19.3917 27.1681 246° West  Level Estimated
Fri 04:00:00 AM 19.3467 27.0599 246° West  Level Estimated
Fri 04:01:00 AM 19.3016 26.9518 246° West  Level Estimated
Fri 04:02:00 AM 19.2564 26.8437 246° West  Level Estimated
Fri 04:03:00 AM 19.2112 26.7357 246° West  Level Estimated
Fri 04:04:00 AM 19.1660 26.6277 246° West  Level Estimated
Fri 04:05:00 AM 19.1206 26.5198 246° West  Level Estimated
Fri 04:06:00 AM 19.0752 26.4120 246° West  Level Estimated
Fri 04:07:00 AM 19.0298 26.3043 246° West  Level Estimated
Fri 04:08:00 AM 18.9842 26.1965 246° West  Level Estimated
Fri 04:09:00 AM 18.9386 26.0889 246° West  Level Estimated
Fri 04:10:00 AM 18.8930 25.9813 246° West  Level Estimated
Fri 04:11:00 AM 18.8473 25.8737 246° West  Level Estimated
Fri 04:12:00 AM 18.8015 25.7663 246° West  Level Estimated
Fri 04:13:00 AM 18.7557 25.6588 246° West  Level Estimated
Fri 04:14:00 AM 18.7098 25.5515 246° West  Level Estimated
Fri 04:15:00 AM 18.6638 25.4442 246° West  Level Estimated
Fri 04:16:00 AM 18.6178 25.3369 246° West  Level Estimated
Fri 04:17:00 AM 18.5717 25.2297 246° West  Level Estimated
Fri 04:18:00 AM 18.5256 25.1226 246° West  Level Estimated
Fri 04:19:00 AM 18.4794 25.0155 246° West  Level Estimated
Fri 04:20:00 AM 18.4331 24.9085 246° West  Level Estimated
Fri 04:21:00 AM 18.3868 24.8015 245° Southwest  Level Estimated
Fri 04:22:00 AM 18.3404 24.6946 245° Southwest  Level Estimated
Fri 04:23:00 AM 18.2940 24.5878 245° Southwest  Level Estimated
Fri 04:24:00 AM 18.2475 24.4810 245° Southwest  Level Estimated
Fri 04:25:00 AM 18.2009 24.3743 245° Southwest  Level Estimated
Fri 04:26:00 AM 18.1543 24.2676 245° Southwest  Level Estimated
Fri 04:27:00 AM 18.1076 24.1610 245° Southwest  Level Estimated
Fri 04:28:00 AM 18.0609 24.0544 245° Southwest  Level Estimated
Fri 04:29:00 AM 18.0141 23.9479 245° Southwest  Level Estimated
Fri 04:30:00 AM 17.9672 23.8415 245° Southwest  Level Estimated
Fri 04:31:00 AM 17.9203 23.7351 245° Southwest  Level Estimated
Fri 04:32:00 AM 17.8734 23.6288 245° Southwest  Level Estimated
Fri 04:33:00 AM 17.8263 23.5225 245° Southwest  Level Estimated
Fri 04:34:00 AM 17.7792 23.4163 245° Southwest  Level Estimated
Fri 04:35:00 AM 17.7321 23.3101 245° Southwest  Level Estimated
Fri 04:36:00 AM 17.6849 23.2040 245° Southwest  Level Estimated
Fri 04:37:00 AM 17.6377 23.0980 245° Southwest  Level Estimated
Fri 04:38:00 AM 17.5903 22.9920 245° Southwest  Level Estimated
Fri 04:39:00 AM 17.5430 22.8860 245° Southwest  Level Estimated
Fri 04:40:00 AM 17.4956 22.7801 245° Southwest  Level Estimated
Fri 04:41:00 AM 17.4481 22.6743 245° Southwest  Level Estimated
Fri 04:42:00 AM 17.4006 22.5685 245° Southwest  Level Estimated
Fri 04:43:00 AM 17.3530 22.4628 245° Southwest  Level Estimated
Fri 04:44:00 AM 17.3053 22.3572 245° Southwest  Level Estimated
Fri 04:45:00 AM 17.2576 22.2516 245° Southwest  Level Estimated
Fri 04:46:00 AM 17.2099 22.1460 245° Southwest  Level Estimated
Fri 04:47:00 AM 17.1620 22.0405 245° Southwest  Level Estimated
Fri 04:48:00 AM 17.1142 21.9350 245° Southwest  Level Estimated
Fri 04:49:00 AM 17.0662 21.8297 245° Southwest  Level Estimated
Fri 04:50:00 AM 17.0183 21.7243 245° Southwest  Level Estimated
Fri 04:51:00 AM 16.9702 21.6190 245° Southwest  Level Estimated
Fri 04:52:00 AM 16.9222 21.5138 244° Southwest  Level Estimated
Fri 04:53:00 AM 16.8740 21.4086 244° Southwest  Level Estimated
Fri 04:54:00 AM 16.8258 21.3035 244° Southwest  Level Estimated
Fri 04:55:00 AM 16.7776 21.1984 244° Southwest  Level Estimated
Fri 04:56:00 AM 16.7293 21.0934 244° Southwest  Level Estimated
Fri 04:57:00 AM 16.6810 20.9884 244° Southwest  Level Estimated
Fri 04:58:00 AM 16.6325 20.8835 244° Southwest  Level Estimated
Fri 04:59:00 AM 16.5841 20.7787 244° Southwest  Level Estimated
Fri 05:00:00 AM 16.5356 20.6739 244° Southwest  Level Estimated
Fri 05:01:00 AM 16.4870 20.5691 244° Southwest  Level Estimated
Fri 05:02:00 AM 16.4384 20.4644 244° Southwest  Level Estimated
Fri 05:03:00 AM 16.3897 20.3598 244° Southwest  Level Estimated
Fri 05:04:00 AM 16.3410 20.2552 244° Southwest  Level Estimated
Fri 05:05:00 AM 16.2923 20.1507 244° Southwest  Level Estimated
Fri 05:06:00 AM 16.2434 20.0462 244° Southwest  Level Estimated
Fri 05:07:00 AM 16.1946 19.9417 244° Southwest  Level Estimated
Fri 05:08:00 AM 16.1457 19.8373 244° Southwest  Level Estimated
Fri 05:09:00 AM 16.0967 19.7330 244° Southwest  Level Estimated
Fri 05:10:00 AM 16.0477 19.6287 244° Southwest  Level Estimated
Fri 05:11:00 AM 15.9986 19.5245 244° Southwest  Level Estimated
Fri 05:12:00 AM 15.9495 19.4203 244° Southwest  Level Estimated
Fri 05:13:00 AM 15.9003 19.3162 244° Southwest  Level Estimated
Fri 05:14:00 AM 15.8511 19.2121 244° Southwest  Level Estimated
Fri 05:15:00 AM 15.8018 19.1081 244° Southwest  Level Estimated
Fri 05:16:00 AM 15.7525 19.0041 244° Southwest  Level Estimated
Fri 05:17:00 AM 15.7031 18.9002 244° Southwest  Level Estimated
Fri 05:18:00 AM 15.6537 18.7963 244° Southwest  Level Estimated
Fri 05:19:00 AM 15.6042 18.6924 244° Southwest  Level Estimated
Fri 05:20:00 AM 15.5547 18.5887 244° Southwest  Level Estimated
Fri 05:21:00 AM 15.5051 18.4849 244° Southwest  Level Estimated
Fri 05:22:00 AM 15.4555 18.3813 244° Southwest  Level Estimated
Fri 05:23:00 AM 15.4059 18.2776 244° Southwest  Level Estimated
Fri 05:24:00 AM 15.3562 18.1740 244° Southwest  Level Estimated
Fri 05:25:00 AM 15.3064 18.0705 244° Southwest  Level Estimated
Fri 05:26:00 AM 15.2566 17.9670 243° Southwest  Level Estimated
Fri 05:27:00 AM 15.2067 17.8636 243° Southwest  Level Estimated
Fri 05:28:00 AM 15.1568 17.7602 243° Southwest  Level Estimated
Fri 05:29:00 AM 15.1069 17.6569 243° Southwest  Level Estimated
Fri 05:30:00 AM 15.0569 17.5536 243° Southwest  Level Estimated
Fri 05:31:00 AM 15.0069 17.4504 243° Southwest  Level Estimated
Fri 05:32:00 AM 14.9568 17.3472 243° Southwest  Level Estimated
Fri 05:33:00 AM 14.9066 17.2441 243° Southwest  Level Estimated
Fri 05:34:00 AM 14.8565 17.1410 243° Southwest  Level Estimated
Fri 05:35:00 AM 14.8062 17.0379 243° Southwest  Level Estimated
Fri 05:36:00 AM 14.7560 16.9349 243° Southwest  Level Estimated
Fri 05:37:00 AM 14.7056 16.8320 243° Southwest  Level Estimated
Fri 05:38:00 AM 14.6553 16.7291 243° Southwest  Level Estimated
Fri 05:39:00 AM 14.6049 16.6262 243° Southwest  Level Estimated
Fri 05:40:00 AM 14.5544 16.5234 243° Southwest  Level Estimated
Fri 05:41:00 AM 14.5039 16.4207 243° Southwest  Level Estimated
Fri 05:42:00 AM 14.4534 16.3180 243° Southwest  Level Estimated
Fri 05:43:00 AM 14.4028 16.2153 243° Southwest  Level Estimated
Fri 05:44:00 AM 14.3522 16.1127 243° Southwest  Level Estimated
Fri 05:45:00 AM 14.3015 16.0101 243° Southwest  Level Estimated
Fri 05:46:00 AM 14.2508 15.9076 243° Southwest  Level Estimated
Fri 05:47:00 AM 14.2000 15.8051 243° Southwest  Level Estimated
Fri 05:48:00 AM 14.1492 15.7027 243° Southwest  Level Estimated
Fri 05:49:00 AM 14.0983 15.6003 243° Southwest  Level Estimated
Fri 05:50:00 AM 14.0475 15.4980 243° Southwest  Level Estimated
Fri 05:51:00 AM 13.9965 15.3957 243° Southwest  Level Estimated
Fri 05:52:00 AM 13.9455 15.2934 243° Southwest  Level Estimated
Fri 05:53:00 AM 13.8945 15.1912 243° Southwest  Level Estimated
Fri 05:54:00 AM 13.8434 15.0891 243° Southwest  Level Estimated
Fri 05:55:00 AM 13.7923 14.9869 243° Southwest  Level Estimated
Fri 05:56:00 AM 13.7412 14.8849 243° Southwest  Level Estimated
Fri 05:57:00 AM 13.6900 14.7828 243° Southwest  Level Estimated
Fri 05:58:00 AM 13.6388 14.6809 243° Southwest  Level Estimated
Fri 05:59:00 AM 13.5875 14.5789 243° Southwest  Level Estimated
Fri 06:00:00 AM 13.5362 14.4770 243° Southwest  Level Estimated
Fri 06:01:00 AM 13.4848 14.3752 243° Southwest  Level Estimated
Fri 06:02:00 AM 13.4334 14.2734 243° Southwest  Level Estimated
Fri 06:03:00 AM 13.3820 14.1716 243° Southwest  Level Estimated
Fri 06:04:00 AM 13.3305 14.0699 243° Southwest  Level Estimated
Fri 06:05:00 AM 13.2790 13.9682 243° Southwest  Level Estimated
Fri 06:06:00 AM 13.2274 13.8666 242° Southwest  Level Estimated
Fri 06:07:00 AM 13.1758 13.7650 242° Southwest  Level Estimated
Fri 06:08:00 AM 13.1242 13.6635 242° Southwest  Level Estimated
Fri 06:09:00 AM 13.0725 13.5620 242° Southwest  Level Estimated
Fri 06:10:00 AM 13.0208 13.4605 242° Southwest  Level Estimated
Fri 06:11:00 AM 12.9690 13.3591 242° Southwest  Level Estimated
Fri 06:12:00 AM 12.9172 13.2577 242° Southwest  Level Estimated
Fri 06:13:00 AM 12.8654 13.1564 242° Southwest  Level Estimated
Fri 06:14:00 AM 12.8135 13.0551 242° Southwest  Level Estimated
Fri 06:15:00 AM 12.7616 12.9538 242° Southwest  Level Estimated
Fri 06:16:00 AM 12.7096 12.8526 242° Southwest  Level Estimated
Fri 06:17:00 AM 12.6576 12.7514 242° Southwest  Level Estimated
Fri 06:18:00 AM 12.6056 12.6503 242° Southwest  Level Estimated
Fri 06:19:00 AM 12.5535 12.5492 242° Southwest  Level Estimated
Fri 06:20:00 AM 12.5014 12.4482 242° Southwest  Level Estimated
Fri 06:21:00 AM 12.4493 12.3472 242° Southwest  Level Estimated
Fri 06:22:00 AM 12.3971 12.2462 242° Southwest  Level Estimated
Fri 06:23:00 AM 12.3449 12.1453 242° Southwest  Level Estimated
Fri 06:24:00 AM 12.2926 12.0444 242° Southwest  Level Estimated
Fri 06:25:00 AM 12.2403 11.9436 242° Southwest  Level Estimated
Fri 06:26:00 AM 12.1880 11.8428 242° Southwest  Level Estimated
Fri 06:27:00 AM 12.1356 11.7420 242° Southwest  Level Estimated
Fri 06:28:00 AM 12.0832 11.6413 242° Southwest  Level Estimated
Fri 06:29:00 AM 12.0308 11.5406 242° Southwest  Level Estimated
Fri 06:30:00 AM 11.9783 11.4400 242° Southwest  Level Estimated
Fri 06:31:00 AM 11.9258 11.3394 242° Southwest  Level Estimated
Fri 06:32:00 AM 11.8733 11.2388 242° Southwest  Level Estimated
Fri 06:33:00 AM 11.8207 11.1383 242° Southwest  Level Estimated
Fri 06:34:00 AM 11.7681 11.0378 242° Southwest  Level Estimated
Fri 06:35:00 AM 11.7154 10.9374 242° Southwest  Level Estimated
Fri 06:36:00 AM 11.6627 10.8370 242° Southwest  Level Estimated
Fri 06:37:00 AM 11.6100 10.7366 242° Southwest  Level Estimated
Fri 06:38:00 AM 11.5573 10.6362 242° Southwest  Level Estimated
Fri 06:39:00 AM 11.5045 10.5359 242° Southwest  Level Estimated
Fri 06:40:00 AM 11.4516 10.4357 242° Southwest  Level Estimated
Fri 06:41:00 AM 11.3988 10.3355 242° Southwest  Level Estimated
Fri 06:42:00 AM 11.3459 10.2353 242° Southwest  Level Estimated
Fri 06:43:00 AM 11.2929 10.1351 242° Southwest  Level Estimated
Fri 06:44:00 AM 11.2400 10.0350 242° Southwest  Level Estimated
Fri 06:45:00 AM 11.1870 9.9349 242° Southwest  Level Estimated
Fri 06:46:00 AM 11.1340 9.8349 242° Southwest  Level Estimated
Fri 06:47:00 AM 11.0809 9.7349 242° Southwest  Level Estimated
Fri 06:48:00 AM 11.0278 9.6349 242° Southwest  Level Estimated
Fri 06:49:00 AM 10.9747 9.5350 242° Southwest  Level Estimated
Fri 06:50:00 AM 10.9215 9.4351 242° Southwest  Level Estimated
Fri 06:51:00 AM 10.8683 9.3352 242° Southwest  Level Estimated
Fri 06:52:00 AM 10.8151 9.2354 242° Southwest  Level Estimated
Fri 06:53:00 AM 10.7619 9.1356 241° Southwest  Level Estimated
Fri 06:54:00 AM 10.7086 9.0359 241° Southwest  Level Estimated
Fri 06:55:00 AM 10.6552 8.9362 241° Southwest  Level Estimated
Fri 06:56:00 AM 10.6019 8.8365 241° Southwest  Level Estimated
Fri 06:57:00 AM 10.5485 8.7368 241° Southwest  Level Estimated
Fri 06:58:00 AM 10.4951 8.6372 241° Southwest  Level Estimated
Fri 06:59:00 AM 10.4417 8.5377 241° Southwest  Level Estimated
Fri 07:00:00 AM 10.3882 8.4381 241° Southwest  Level Estimated
Fri 07:01:00 AM 10.3347 8.3386 241° Southwest  Level Estimated
Fri 07:02:00 AM 10.2811 8.2391 241° Southwest  Level Estimated
Fri 07:03:00 AM 10.2276 8.1397 241° Southwest  Level Estimated
Fri 07:04:00 AM 10.1740 8.0403 241° Southwest  Level Estimated
Fri 07:05:00 AM 10.1203 7.9409 241° Southwest  Level Estimated
Fri 07:06:00 AM 10.0667 7.8416 241° Southwest  Level Estimated
Fri 07:07:00 AM 10.0130 7.7423 241° Southwest  Level Estimated
Fri 07:08:00 AM 9.9593 7.6430 241° Southwest  Level Estimated
Fri 07:09:00 AM 9.9055 7.5437 241° Southwest  Level Estimated
Fri 07:10:00 AM 9.8518 7.4445 241° Southwest  Level Estimated
Fri 07:11:00 AM 9.7980 7.3453 241° Southwest  Level Estimated
Fri 07:12:00 AM 9.7441 7.2462 241° Southwest  Level Estimated
Fri 07:13:00 AM 9.6903 7.1471 241° Southwest  Level Estimated
Fri 07:14:00 AM 9.6364 7.0480 241° Southwest  Level Estimated
Fri 07:15:00 AM 9.5825 6.9490 241° Southwest  Level Estimated
Fri 07:16:00 AM 9.5285 6.8499 241° Southwest  Level Estimated
Fri 07:17:00 AM 9.4746 6.7509 241° Southwest  Level Estimated
Fri 07:18:00 AM 9.4206 6.6520 241° Southwest  Level Estimated
Fri 07:19:00 AM 9.3665 6.5531 241° Southwest  Level Estimated
Fri 07:20:00 AM 9.3125 6.4542 241° Southwest  Level Estimated
Fri 07:21:00 AM 9.2584 6.3553 241° Southwest  Level Estimated
Fri 07:22:00 AM 9.2043 6.2565 241° Southwest  Level Estimated
Fri 07:23:00 AM 9.1501 6.1577 241° Southwest  Level Estimated
Fri 07:24:00 AM 9.0960 6.0589 241° Southwest  Level Estimated
Fri 07:25:00 AM 9.0418 5.9602 241° Southwest  Level Estimated
Fri 07:26:00 AM 8.9876 5.8615 241° Southwest  Level Estimated
Fri 07:27:00 AM 8.9333 5.7628 241° Southwest  Level Estimated
Fri 07:28:00 AM 8.8791 5.6641 241° Southwest  Level Estimated
Fri 07:29:00 AM 8.8248 5.5655 241° Southwest  Level Estimated
Fri 07:30:00 AM 8.7704 5.4669 241° Southwest  Level Estimated
Fri 07:31:00 AM 8.7161 5.3683 241° Southwest  Level Estimated
Fri 07:32:00 AM 8.6617 5.2698 241° Southwest  Level Estimated
Fri 07:33:00 AM 8.6073 5.1713 241° Southwest  Level Estimated
Fri 07:34:00 AM 8.5529 5.0728 241° Southwest  Level Estimated
Fri 07:35:00 AM 8.4985 4.9743 241° Southwest  Level Estimated
Fri 07:36:00 AM 8.4440 4.8759 241° Southwest  Level Estimated
Fri 07:37:00 AM 8.3895 4.7775 241° Southwest  Level Estimated
Fri 07:38:00 AM 8.3350 4.6792 241° Southwest  Level Estimated
Fri 07:39:00 AM 8.2804 4.5808 241° Southwest  Level Estimated
Fri 07:40:00 AM 8.2259 4.4825 241° Southwest  Level Estimated
Fri 07:41:00 AM 8.1713 4.3842 241° Southwest  Level Estimated
Fri 07:42:00 AM 8.1166 4.2859 241° Southwest  Level Estimated
Fri 07:43:00 AM 8.0620 4.1877 241° Southwest  Level Estimated
Fri 07:44:00 AM 8.0073 4.0895 241° Southwest  Level Estimated
Fri 07:45:00 AM 7.9527 3.9913 241° Southwest  Level Estimated
Fri 07:46:00 AM 7.8980 3.8932 241° Southwest  Level Estimated
Fri 07:47:00 AM 7.8432 3.7950 241° Southwest  Level Estimated
Fri 07:48:00 AM 7.7885 3.6969 241° Southwest  Level Estimated
Fri 07:49:00 AM 7.7337 3.5988 241° Southwest  Level Estimated
Fri 07:50:00 AM 7.6789 3.5008 241° Southwest  Level Estimated
Fri 07:51:00 AM 7.6241 3.4028 241° Southwest  Level Estimated
Fri 07:52:00 AM 7.5692 3.3048 241° Southwest  Level Estimated
Fri 07:53:00 AM 7.5144 3.2068 241° Southwest  Level Estimated
Fri 07:54:00 AM 7.4595 3.1088 241° Southwest  Level Estimated
Fri 07:55:00 AM 7.4046 3.0109 241° Southwest  Level Estimated
Fri 07:56:00 AM 7.3496 2.9130 241° Southwest  Level Estimated
Fri 07:57:00 AM 7.2947 2.8151 240° Southwest  Level Estimated
Fri 07:58:00 AM 7.2397 2.7173 240° Southwest  Level Estimated
Fri 07:59:00 AM 7.1847 2.6194 240° Southwest  Level Estimated
Fri 08:00:00 AM 7.1297 2.5216 240° Southwest  Level Estimated
Fri 08:01:00 AM 7.0747 2.4238 240° Southwest  Level Estimated
Fri 08:02:00 AM 7.0196 2.3261 240° Southwest  Level Estimated
Fri 08:03:00 AM 6.9645 2.2283 240° Southwest  Level Estimated
Fri 08:04:00 AM 6.9094 2.1306 240° Southwest  Level Estimated
Fri 08:05:00 AM 6.8531 2.0308 240° Southwest  Level Estimated
Fri 08:06:00 AM 6.7967 1.9309 240° Southwest  Level Estimated
Fri 08:07:00 AM 6.7404 1.8311 240° Southwest  Level Estimated
Fri 08:08:00 AM 6.6840 1.7313 240° Southwest  Level Estimated
Fri 08:09:00 AM 6.6275 1.6315 240° Southwest  Level Estimated
Fri 08:10:00 AM 6.5711 1.5318 240° Southwest  Level Estimated
Fri 08:11:00 AM 6.5146 1.4321 240° Southwest  Level Estimated
Fri 08:12:00 AM 6.4582 1.3324 240° Southwest  Level Estimated
Fri 08:13:00 AM 6.4017 1.2327 240° Southwest  Level Estimated
Fri 08:14:00 AM 6.3451 1.1331 240° Southwest  Level Estimated
Fri 08:15:00 AM 6.2886 1.0334 240° Southwest  Level Estimated
Fri 08:16:00 AM 6.2320 0.9338 240° Southwest  Level Estimated
Fri 08:17:00 AM 6.1755 0.8342 240° Southwest  Level Estimated
Fri 08:18:00 AM 6.1189 0.7347 240° Southwest  Level Estimated
Fri 08:19:00 AM 6.0623 0.6351 240° Southwest  Level Estimated

Login

Don't have an account? Register now (free) for customized features, flight alerts, and more!